sensor_id;sensor_type;location;lat;lon;timestamp;P1;durP1;ratioP1;P2;durP2;ratioP2
14092;SDS011;7123;49.468;10.992;2023-06-22T00:00:10;6.50;;;5.90;;
14092;SDS011;7123;49.468;10.992;2023-06-22T00:02:38;6.45;;;5.72;;
14092;SDS011;7123;49.468;10.992;2023-06-22T00:05:05;6.55;;;5.95;;
14092;SDS011;7123;49.468;10.992;2023-06-22T00:07:32;6.07;;;5.25;;
14092;SDS011;7123;49.468;10.992;2023-06-22T00:09:59;6.60;;;5.93;;
14092;SDS011;7123;49.468;10.992;2023-06-22T00:12:25;7.30;;;6.60;;
14092;SDS011;7123;49.468;10.992;2023-06-22T00:14:52;7.13;;;5.90;;
14092;SDS011;7123;49.468;10.992;2023-06-22T00:17:19;7.05;;;5.90;;
14092;SDS011;7123;49.468;10.992;2023-06-22T00:19:48;5.78;;;5.22;;
14092;SDS011;7123;49.468;10.992;2023-06-22T00:22:19;6.47;;;5.88;;
14092;SDS011;7123;49.468;10.992;2023-06-22T00:24:55;8.15;;;6.50;;
14092;SDS011;7123;49.468;10.992;2023-06-22T00:27:22;7.07;;;6.38;;
14092;SDS011;7123;49.468;10.992;2023-06-22T00:29:49;8.25;;;6.55;;
14092;SDS011;7123;49.468;10.992;2023-06-22T00:32:15;7.47;;;6.78;;
14092;SDS011;7123;49.468;10.992;2023-06-22T00:34:43;6.72;;;6.13;;
14092;SDS011;7123;49.468;10.992;2023-06-22T00:37:10;7.45;;;6.70;;
14092;SDS011;7123;49.468;10.992;2023-06-22T00:39:37;7.47;;;6.65;;
14092;SDS011;7123;49.468;10.992;2023-06-22T00:42:04;8.63;;;6.28;;
14092;SDS011;7123;49.468;10.992;2023-06-22T00:44:31;6.97;;;5.55;;
14092;SDS011;7123;49.468;10.992;2023-06-22T00:46:57;6.95;;;6.25;;
14092;SDS011;7123;49.468;10.992;2023-06-22T00:49:26;6.03;;;5.60;;
14092;SDS011;7123;49.468;10.992;2023-06-22T00:51:53;6.30;;;5.68;;
14092;SDS011;7123;49.468;10.992;2023-06-22T00:54:20;6.25;;;5.65;;
14092;SDS011;7123;49.468;10.992;2023-06-22T00:56:53;6.10;;;5.45;;
14092;SDS011;7123;49.468;10.992;2023-06-22T00:59:23;6.28;;;5.68;;
14092;SDS011;7123;49.468;10.992;2023-06-22T01:01:50;7.18;;;6.05;;
14092;SDS011;7123;49.468;10.992;2023-06-22T01:04:17;6.63;;;5.57;;
14092;SDS011;7123;49.468;10.992;2023-06-22T01:06:52;6.78;;;5.88;;
14092;SDS011;7123;49.468;10.992;2023-06-22T01:09:27;5.80;;;5.20;;
14092;SDS011;7123;49.468;10.992;2023-06-22T01:12:00;7.40;;;5.63;;
14092;SDS011;7123;49.468;10.992;2023-06-22T01:14:43;6.43;;;5.47;;
14092;SDS011;7123;49.468;10.992;2023-06-22T01:17:16;6.72;;;5.97;;
14092;SDS011;7123;49.468;10.992;2023-06-22T01:19:45;6.00;;;5.50;;
14092;SDS011;7123;49.468;10.992;2023-06-22T01:22:17;7.32;;;5.72;;
14092;SDS011;7123;49.468;10.992;2023-06-22T01:30:07;6.90;;;6.30;;
14092;SDS011;7123;49.468;10.992;2023-06-22T01:32:37;9.88;;;6.93;;
14092;SDS011;7123;49.468;10.992;2023-06-22T01:35:05;7.60;;;6.50;;
14092;SDS011;7123;49.468;10.992;2023-06-22T01:37:35;11.18;;;6.60;;
14092;SDS011;7123;49.468;10.992;2023-06-22T01:40:03;8.68;;;6.10;;
14092;SDS011;7123;49.468;10.992;2023-06-22T01:42:32;8.90;;;6.05;;
14092;SDS011;7123;49.468;10.992;2023-06-22T01:45:00;6.75;;;6.15;;
14092;SDS011;7123;49.468;10.992;2023-06-22T01:47:28;6.32;;;5.72;;
14092;SDS011;7123;49.468;10.992;2023-06-22T01:49:56;6.32;;;5.75;;
14092;SDS011;7123;49.468;10.992;2023-06-22T01:52:23;6.30;;;5.80;;
14092;SDS011;7123;49.468;10.992;2023-06-22T01:54:49;8.00;;;5.45;;
14092;SDS011;7123;49.468;10.992;2023-06-22T01:57:16;6.65;;;6.15;;
14092;SDS011;7123;49.468;10.992;2023-06-22T01:59:47;7.15;;;5.78;;
14092;SDS011;7123;49.468;10.992;2023-06-22T02:02:19;6.55;;;5.78;;
14092;SDS011;7123;49.468;10.992;2023-06-22T02:04:59;7.10;;;6.07;;
14092;SDS011;7123;49.468;10.992;2023-06-22T02:07:32;6.15;;;5.60;;
14092;SDS011;7123;49.468;10.992;2023-06-22T02:10:04;5.82;;;5.22;;
14092;SDS011;7123;49.468;10.992;2023-06-22T02:12:34;7.72;;;5.65;;
14092;SDS011;7123;49.468;10.992;2023-06-22T02:15:02;8.02;;;6.88;;
14092;SDS011;7123;49.468;10.992;2023-06-22T02:17:29;7.20;;;5.72;;
14092;SDS011;7123;49.468;10.992;2023-06-22T02:20:00;6.95;;;6.25;;
14092;SDS011;7123;49.468;10.992;2023-06-22T02:22:29;7.80;;;6.00;;
14092;SDS011;7123;49.468;10.992;2023-06-22T02:24:56;6.35;;;5.75;;
14092;SDS011;7123;49.468;10.992;2023-06-22T02:27:23;6.82;;;6.22;;
14092;SDS011;7123;49.468;10.992;2023-06-22T02:29:49;6.57;;;5.93;;
14092;SDS011;7123;49.468;10.992;2023-06-22T02:32:16;6.05;;;5.45;;
14092;SDS011;7123;49.468;10.992;2023-06-22T02:34:43;7.53;;;5.57;;
14092;SDS011;7123;49.468;10.992;2023-06-22T02:37:13;6.32;;;5.72;;
14092;SDS011;7123;49.468;10.992;2023-06-22T02:39:42;6.90;;;6.20;;
14092;SDS011;7123;49.468;10.992;2023-06-22T02:42:08;9.13;;;6.97;;
14092;SDS011;7123;49.468;10.992;2023-06-22T02:44:37;7.55;;;6.93;;
14092;SDS011;7123;49.468;10.992;2023-06-22T02:47:03;10.75;;;7.90;;
14092;SDS011;7123;49.468;10.992;2023-06-22T02:49:31;9.40;;;7.97;;
14092;SDS011;7123;49.468;10.992;2023-06-22T02:51:58;10.73;;;8.20;;
14092;SDS011;7123;49.468;10.992;2023-06-22T02:54:24;9.88;;;8.18;;
14092;SDS011;7123;49.468;10.992;2023-06-22T02:56:51;11.68;;;8.15;;
14092;SDS011;7123;49.468;10.992;2023-06-22T02:59:18;10.68;;;8.68;;
14092;SDS011;7123;49.468;10.992;2023-06-22T03:01:49;12.00;;;8.98;;
14092;SDS011;7123;49.468;10.992;2023-06-22T03:04:17;10.55;;;8.55;;
14092;SDS011;7123;49.468;10.992;2023-06-22T03:06:44;10.43;;;9.38;;
14092;SDS011;7123;49.468;10.992;2023-06-22T03:09:10;10.43;;;8.93;;
14092;SDS011;7123;49.468;10.992;2023-06-22T03:11:37;11.13;;;8.95;;
14092;SDS011;7123;49.468;10.992;2023-06-22T03:14:04;10.68;;;8.98;;
14092;SDS011;7123;49.468;10.992;2023-06-22T03:16:31;9.07;;;7.25;;
14092;SDS011;7123;49.468;10.992;2023-06-22T03:18:59;10.50;;;8.13;;
14092;SDS011;7123;49.468;10.992;2023-06-22T03:21:29;11.57;;;7.80;;
14092;SDS011;7123;49.468;10.992;2023-06-22T03:23:55;11.93;;;7.57;;
14092;SDS011;7123;49.468;10.992;2023-06-22T03:26:22;9.40;;;7.07;;
14092;SDS011;7123;49.468;10.992;2023-06-22T03:28:53;7.70;;;6.60;;
14092;SDS011;7123;49.468;10.992;2023-06-22T03:31:20;9.77;;;7.70;;
14092;SDS011;7123;49.468;10.992;2023-06-22T03:33:48;8.75;;;7.57;;
14092;SDS011;7123;49.468;10.992;2023-06-22T03:36:16;7.97;;;7.18;;
14092;SDS011;7123;49.468;10.992;2023-06-22T03:38:46;8.45;;;7.55;;
14092;SDS011;7123;49.468;10.992;2023-06-22T03:41:13;8.35;;;7.50;;
14092;SDS011;7123;49.468;10.992;2023-06-22T03:43:40;8.15;;;7.35;;
14092;SDS011;7123;49.468;10.992;2023-06-22T03:46:07;8.05;;;7.25;;
14092;SDS011;7123;49.468;10.992;2023-06-22T03:48:34;8.68;;;6.97;;
14092;SDS011;7123;49.468;10.992;2023-06-22T03:51:01;8.10;;;7.30;;
14092;SDS011;7123;49.468;10.992;2023-06-22T03:53:29;8.55;;;7.72;;
14092;SDS011;7123;49.468;10.992;2023-06-22T03:55:56;8.05;;;7.25;;
14092;SDS011;7123;49.468;10.992;2023-06-22T03:58:23;10.55;;;8.13;;
14092;SDS011;7123;49.468;10.992;2023-06-22T04:00:50;10.32;;;8.07;;
14092;SDS011;7123;49.468;10.992;2023-06-22T04:03:18;10.48;;;7.90;;
14092;SDS011;7123;49.468;10.992;2023-06-22T04:05:46;8.70;;;7.88;;
14092;SDS011;7123;49.468;10.992;2023-06-22T04:08:14;10.60;;;7.57;;
14092;SDS011;7123;49.468;10.992;2023-06-22T04:10:41;7.80;;;6.95;;
14092;SDS011;7123;49.468;10.992;2023-06-22T04:13:08;8.40;;;7.60;;
14092;SDS011;7123;49.468;10.992;2023-06-22T04:15:35;8.15;;;7.45;;
14092;SDS011;7123;49.468;10.992;2023-06-22T04:18:01;8.35;;;7.40;;
14092;SDS011;7123;49.468;10.992;2023-06-22T04:20:28;7.93;;;7.13;;
14092;SDS011;7123;49.468;10.992;2023-06-22T04:22:55;8.05;;;7.20;;
14092;SDS011;7123;49.468;10.992;2023-06-22T04:25:22;7.40;;;6.70;;
14092;SDS011;7123;49.468;10.992;2023-06-22T04:27:49;7.30;;;6.70;;
14092;SDS011;7123;49.468;10.992;2023-06-22T04:30:16;9.13;;;6.82;;
14092;SDS011;7123;49.468;10.992;2023-06-22T04:32:43;7.55;;;6.82;;
14092;SDS011;7123;49.468;10.992;2023-06-22T04:35:11;7.20;;;6.35;;
14092;SDS011;7123;49.468;10.992;2023-06-22T04:37:38;7.05;;;6.35;;
14092;SDS011;7123;49.468;10.992;2023-06-22T04:40:05;7.22;;;6.53;;
14092;SDS011;7123;49.468;10.992;2023-06-22T04:42:33;7.25;;;6.65;;
14092;SDS011;7123;49.468;10.992;2023-06-22T04:45:02;8.88;;;6.30;;
14092;SDS011;7123;49.468;10.992;2023-06-22T04:47:29;6.78;;;6.15;;
14092;SDS011;7123;49.468;10.992;2023-06-22T04:49:56;7.35;;;6.57;;
14092;SDS011;7123;49.468;10.992;2023-06-22T04:52:23;10.20;;;6.72;;
14092;SDS011;7123;49.468;10.992;2023-06-22T04:54:50;7.47;;;6.50;;
14092;SDS011;7123;49.468;10.992;2023-06-22T04:57:21;7.80;;;6.38;;
14092;SDS011;7123;49.468;10.992;2023-06-22T04:59:59;7.40;;;6.80;;
14092;SDS011;7123;49.468;10.992;2023-06-22T05:02:38;6.75;;;6.25;;
14092;SDS011;7123;49.468;10.992;2023-06-22T05:05:06;7.75;;;6.95;;
14092;SDS011;7123;49.468;10.992;2023-06-22T05:07:34;7.97;;;6.90;;
14092;SDS011;7123;49.468;10.992;2023-06-22T05:10:04;6.88;;;6.25;;
14092;SDS011;7123;49.468;10.992;2023-06-22T05:12:31;7.80;;;7.07;;
14092;SDS011;7123;49.468;10.992;2023-06-22T05:14:58;7.38;;;6.68;;
14092;SDS011;7123;49.468;10.992;2023-06-22T05:17:25;7.10;;;6.40;;
14092;SDS011;7123;49.468;10.992;2023-06-22T05:19:51;8.43;;;6.60;;
14092;SDS011;7123;49.468;10.992;2023-06-22T05:22:19;8.20;;;7.40;;
14092;SDS011;7123;49.468;10.992;2023-06-22T05:24:46;8.95;;;7.22;;
14092;SDS011;7123;49.468;10.992;2023-06-22T05:27:13;7.38;;;6.60;;
14092;SDS011;7123;49.468;10.992;2023-06-22T05:29:40;7.13;;;6.47;;
14092;SDS011;7123;49.468;10.992;2023-06-22T05:32:08;8.63;;;7.13;;
14092;SDS011;7123;49.468;10.992;2023-06-22T05:34:35;7.20;;;6.57;;
14092;SDS011;7123;49.468;10.992;2023-06-22T05:37:02;9.07;;;6.90;;
14092;SDS011;7123;49.468;10.992;2023-06-22T05:39:29;8.95;;;7.22;;
14092;SDS011;7123;49.468;10.992;2023-06-22T05:41:56;7.55;;;6.85;;
14092;SDS011;7123;49.468;10.992;2023-06-22T05:44:23;8.10;;;6.75;;
14092;SDS011;7123;49.468;10.992;2023-06-22T05:46:50;8.00;;;7.20;;
14092;SDS011;7123;49.468;10.992;2023-06-22T05:49:17;8.07;;;7.38;;
14092;SDS011;7123;49.468;10.992;2023-06-22T05:51:44;8.68;;;7.10;;
14092;SDS011;7123;49.468;10.992;2023-06-22T05:54:10;7.90;;;6.78;;
14092;SDS011;7123;49.468;10.992;2023-06-22T05:56:39;8.85;;;7.18;;
14092;SDS011;7123;49.468;10.992;2023-06-22T05:59:06;7.78;;;6.97;;
14092;SDS011;7123;49.468;10.992;2023-06-22T06:01:33;11.25;;;7.38;;
14092;SDS011;7123;49.468;10.992;2023-06-22T06:04:02;8.20;;;7.35;;
14092;SDS011;7123;49.468;10.992;2023-06-22T06:06:30;8.30;;;7.50;;
14092;SDS011;7123;49.468;10.992;2023-06-22T06:08:57;8.15;;;6.85;;
14092;SDS011;7123;49.468;10.992;2023-06-22T06:11:25;7.00;;;6.38;;
14092;SDS011;7123;49.468;10.992;2023-06-22T06:13:52;7.90;;;6.85;;
14092;SDS011;7123;49.468;10.992;2023-06-22T06:16:19;8.48;;;7.18;;
14092;SDS011;7123;49.468;10.992;2023-06-22T06:18:45;8.90;;;6.72;;
14092;SDS011;7123;49.468;10.992;2023-06-22T06:21:16;8.77;;;7.43;;
14092;SDS011;7123;49.468;10.992;2023-06-22T06:23:42;7.50;;;6.65;;
14092;SDS011;7123;49.468;10.992;2023-06-22T06:26:09;9.00;;;7.05;;
14092;SDS011;7123;49.468;10.992;2023-06-22T06:28:36;8.02;;;7.00;;
14092;SDS011;7123;49.468;10.992;2023-06-22T06:31:03;7.60;;;6.70;;
14092;SDS011;7123;49.468;10.992;2023-06-22T06:33:33;7.93;;;6.90;;
14092;SDS011;7123;49.468;10.992;2023-06-22T06:36:00;9.98;;;7.35;;
14092;SDS011;7123;49.468;10.992;2023-06-22T06:38:30;8.35;;;7.25;;
14092;SDS011;7123;49.468;10.992;2023-06-22T06:41:00;7.38;;;6.72;;
14092;SDS011;7123;49.468;10.992;2023-06-22T06:43:26;8.02;;;7.10;;
14092;SDS011;7123;49.468;10.992;2023-06-22T06:45:53;9.18;;;7.57;;
14092;SDS011;7123;49.468;10.992;2023-06-22T06:48:20;7.88;;;6.57;;
14092;SDS011;7123;49.468;10.992;2023-06-22T06:50:47;9.35;;;6.93;;
14092;SDS011;7123;49.468;10.992;2023-06-22T06:53:13;8.30;;;7.43;;
14092;SDS011;7123;49.468;10.992;2023-06-22T06:55:40;9.82;;;6.95;;
14092;SDS011;7123;49.468;10.992;2023-06-22T06:58:07;7.13;;;6.53;;
14092;SDS011;7123;49.468;10.992;2023-06-22T07:00:36;6.90;;;6.22;;
14092;SDS011;7123;49.468;10.992;2023-06-22T07:03:03;7.18;;;6.47;;
14092;SDS011;7123;49.468;10.992;2023-06-22T07:05:30;8.95;;;6.50;;
14092;SDS011;7123;49.468;10.992;2023-06-22T07:07:57;8.77;;;6.32;;
14092;SDS011;7123;49.468;10.992;2023-06-22T07:10:24;8.02;;;7.10;;
14092;SDS011;7123;49.468;10.992;2023-06-22T07:12:51;6.97;;;6.35;;
14092;SDS011;7123;49.468;10.992;2023-06-22T07:15:18;7.05;;;6.55;;
14092;SDS011;7123;49.468;10.992;2023-06-22T07:17:45;7.43;;;6.45;;
14092;SDS011;7123;49.468;10.992;2023-06-22T07:20:12;7.18;;;6.53;;
14092;SDS011;7123;49.468;10.992;2023-06-22T07:22:39;7.20;;;6.50;;
14092;SDS011;7123;49.468;10.992;2023-06-22T07:25:07;7.20;;;6.47;;
14092;SDS011;7123;49.468;10.992;2023-06-22T07:27:45;10.40;;;6.38;;
14092;SDS011;7123;49.468;10.992;2023-06-22T07:30:22;7.63;;;6.82;;
14092;SDS011;7123;49.468;10.992;2023-06-22T07:32:49;7.47;;;6.60;;
14092;SDS011;7123;49.468;10.992;2023-06-22T07:35:16;7.63;;;6.32;;
14092;SDS011;7123;49.468;10.992;2023-06-22T07:37:43;6.60;;;5.88;;
14092;SDS011;7123;49.468;10.992;2023-06-22T07:40:09;6.53;;;5.85;;
14092;SDS011;7123;49.468;10.992;2023-06-22T07:42:37;8.38;;;5.93;;
14092;SDS011;7123;49.468;10.992;2023-06-22T07:45:04;7.55;;;6.75;;
14092;SDS011;7123;49.468;10.992;2023-06-22T07:47:34;7.28;;;5.97;;
14092;SDS011;7123;49.468;10.992;2023-06-22T07:50:02;7.43;;;6.63;;
14092;SDS011;7123;49.468;10.992;2023-06-22T07:52:30;6.82;;;5.82;;
14092;SDS011;7123;49.468;10.992;2023-06-22T07:54:57;10.20;;;6.40;;
14092;SDS011;7123;49.468;10.992;2023-06-22T07:57:23;7.22;;;6.13;;
14092;SDS011;7123;49.468;10.992;2023-06-22T07:59:59;7.90;;;6.07;;
14092;SDS011;7123;49.468;10.992;2023-06-22T08:02:26;6.70;;;6.05;;
14092;SDS011;7123;49.468;10.992;2023-06-22T08:04:53;7.68;;;6.20;;
14092;SDS011;7123;49.468;10.992;2023-06-22T08:07:40;6.53;;;5.75;;
14092;SDS011;7123;49.468;10.992;2023-06-22T08:10:10;6.35;;;5.72;;
14092;SDS011;7123;49.468;10.992;2023-06-22T08:12:38;8.18;;;5.43;;
14092;SDS011;7123;49.468;10.992;2023-06-22T08:15:06;7.22;;;5.78;;
14092;SDS011;7123;49.468;10.992;2023-06-22T08:17:33;5.63;;;4.88;;
14092;SDS011;7123;49.468;10.992;2023-06-22T08:20:01;7.25;;;5.50;;
14092;SDS011;7123;49.468;10.992;2023-06-22T08:22:29;6.68;;;5.20;;
14092;SDS011;7123;49.468;10.992;2023-06-22T08:24:56;7.32;;;5.32;;
14092;SDS011;7123;49.468;10.992;2023-06-22T08:27:23;7.68;;;4.60;;
14092;SDS011;7123;49.468;10.992;2023-06-22T08:29:50;7.82;;;4.68;;
14092;SDS011;7123;49.468;10.992;2023-06-22T08:32:17;6.78;;;4.40;;
14092;SDS011;7123;49.468;10.992;2023-06-22T08:34:44;6.28;;;4.93;;
14092;SDS011;7123;49.468;10.992;2023-06-22T08:37:11;9.23;;;4.60;;
14092;SDS011;7123;49.468;10.992;2023-06-22T08:39:38;8.30;;;4.65;;
14092;SDS011;7123;49.468;10.992;2023-06-22T08:42:05;5.80;;;4.82;;
14092;SDS011;7123;49.468;10.992;2023-06-22T08:44:32;5.97;;;4.50;;
14092;SDS011;7123;49.468;10.992;2023-06-22T08:46:59;5.18;;;4.68;;
14092;SDS011;7123;49.468;10.992;2023-06-22T08:49:26;5.13;;;4.63;;
14092;SDS011;7123;49.468;10.992;2023-06-22T08:51:52;6.50;;;5.03;;
14092;SDS011;7123;49.468;10.992;2023-06-22T08:54:22;6.38;;;4.68;;
14092;SDS011;7123;49.468;10.992;2023-06-22T08:56:49;6.03;;;5.03;;
14092;SDS011;7123;49.468;10.992;2023-06-22T08:59:15;9.82;;;5.72;;
14092;SDS011;7123;49.468;10.992;2023-06-22T09:01:42;8.98;;;5.30;;
14092;SDS011;7123;49.468;10.992;2023-06-22T09:04:11;5.70;;;4.57;;
14092;SDS011;7123;49.468;10.992;2023-06-22T09:06:39;11.65;;;4.97;;
14092;SDS011;7123;49.468;10.992;2023-06-22T09:09:12;7.28;;;4.88;;
14092;SDS011;7123;49.468;10.992;2023-06-22T09:11:40;6.07;;;4.72;;
14092;SDS011;7123;49.468;10.992;2023-06-22T09:14:06;10.00;;;4.60;;
14092;SDS011;7123;49.468;10.992;2023-06-22T09:16:33;8.60;;;5.00;;
14092;SDS011;7123;49.468;10.992;2023-06-22T09:19:01;8.02;;;4.70;;
14092;SDS011;7123;49.468;10.992;2023-06-22T09:21:28;14.07;;;4.63;;
14092;SDS011;7123;49.468;10.992;2023-06-22T09:23:57;7.65;;;4.65;;
14092;SDS011;7123;49.468;10.992;2023-06-22T09:26:23;7.20;;;4.40;;
14092;SDS011;7123;49.468;10.992;2023-06-22T09:28:50;9.98;;;4.97;;
14092;SDS011;7123;49.468;10.992;2023-06-22T09:31:17;9.38;;;4.82;;
14092;SDS011;7123;49.468;10.992;2023-06-22T09:33:52;10.25;;;4.40;;
14092;SDS011;7123;49.468;10.992;2023-06-22T09:36:22;8.60;;;4.97;;
14092;SDS011;7123;49.468;10.992;2023-06-22T09:38:49;7.78;;;5.00;;
14092;SDS011;7123;49.468;10.992;2023-06-22T09:41:21;7.60;;;4.85;;
14092;SDS011;7123;49.468;10.992;2023-06-22T09:43:48;11.02;;;4.80;;
14092;SDS011;7123;49.468;10.992;2023-06-22T09:46:15;10.73;;;5.50;;
14092;SDS011;7123;49.468;10.992;2023-06-22T09:48:42;9.63;;;4.88;;
14092;SDS011;7123;49.468;10.992;2023-06-22T09:51:09;6.60;;;4.95;;
14092;SDS011;7123;49.468;10.992;2023-06-22T09:53:36;10.55;;;5.53;;
14092;SDS011;7123;49.468;10.992;2023-06-22T09:56:04;7.78;;;5.22;;
14092;SDS011;7123;49.468;10.992;2023-06-22T09:58:32;8.60;;;5.20;;
14092;SDS011;7123;49.468;10.992;2023-06-22T10:00:59;8.60;;;5.50;;
14092;SDS011;7123;49.468;10.992;2023-06-22T10:03:26;9.20;;;4.63;;
14092;SDS011;7123;49.468;10.992;2023-06-22T10:05:53;8.32;;;4.95;;
14092;SDS011;7123;49.468;10.992;2023-06-22T10:08:20;8.68;;;4.72;;
14092;SDS011;7123;49.468;10.992;2023-06-22T10:10:46;8.32;;;5.35;;
14092;SDS011;7123;49.468;10.992;2023-06-22T10:13:13;6.55;;;5.05;;
14092;SDS011;7123;49.468;10.992;2023-06-22T10:15:41;12.93;;;5.07;;
14092;SDS011;7123;49.468;10.992;2023-06-22T10:18:08;8.52;;;4.93;;
14092;SDS011;7123;49.468;10.992;2023-06-22T10:20:35;10.45;;;5.13;;
14092;SDS011;7123;49.468;10.992;2023-06-22T10:23:02;11.90;;;5.03;;
14092;SDS011;7123;49.468;10.992;2023-06-22T10:25:29;8.90;;;5.60;;
14092;SDS011;7123;49.468;10.992;2023-06-22T10:27:56;7.70;;;5.28;;
14092;SDS011;7123;49.468;10.992;2023-06-22T10:30:23;8.63;;;5.13;;
14092;SDS011;7123;49.468;10.992;2023-06-22T10:32:50;8.07;;;5.30;;
14092;SDS011;7123;49.468;10.992;2023-06-22T10:35:17;9.35;;;4.80;;
14092;SDS011;7123;49.468;10.992;2023-06-22T10:37:44;8.25;;;5.05;;
14092;SDS011;7123;49.468;10.992;2023-06-22T10:40:12;10.05;;;5.30;;
14092;SDS011;7123;49.468;10.992;2023-06-22T10:42:39;9.38;;;4.97;;
14092;SDS011;7123;49.468;10.992;2023-06-22T10:45:07;10.73;;;5.25;;
14092;SDS011;7123;49.468;10.992;2023-06-22T10:47:34;9.02;;;5.53;;
14092;SDS011;7123;49.468;10.992;2023-06-22T10:50:01;6.70;;;4.43;;
14092;SDS011;7123;49.468;10.992;2023-06-22T10:52:28;11.27;;;5.75;;
14092;SDS011;7123;49.468;10.992;2023-06-22T10:54:55;8.10;;;5.22;;
14092;SDS011;7123;49.468;10.992;2023-06-22T10:57:22;10.05;;;5.20;;
14092;SDS011;7123;49.468;10.992;2023-06-22T10:59:49;10.40;;;5.80;;
14092;SDS011;7123;49.468;10.992;2023-06-22T11:02:16;9.75;;;5.18;;
14092;SDS011;7123;49.468;10.992;2023-06-22T11:04:42;6.28;;;5.20;;
14092;SDS011;7123;49.468;10.992;2023-06-22T11:07:09;8.07;;;5.20;;
14092;SDS011;7123;49.468;10.992;2023-06-22T11:09:36;10.95;;;5.38;;
14092;SDS011;7123;49.468;10.992;2023-06-22T11:12:05;6.78;;;5.47;;
14092;SDS011;7123;49.468;10.992;2023-06-22T11:14:32;11.60;;;5.07;;
14092;SDS011;7123;49.468;10.992;2023-06-22T11:17:02;11.00;;;5.75;;
14092;SDS011;7123;49.468;10.992;2023-06-22T11:19:28;10.52;;;5.60;;
14092;SDS011;7123;49.468;10.992;2023-06-22T11:21:55;8.27;;;5.25;;
14092;SDS011;7123;49.468;10.992;2023-06-22T11:24:22;7.93;;;5.15;;
14092;SDS011;7123;49.468;10.992;2023-06-22T11:26:49;8.60;;;5.00;;
14092;SDS011;7123;49.468;10.992;2023-06-22T11:29:15;15.35;;;5.65;;
14092;SDS011;7123;49.468;10.992;2023-06-22T11:31:57;8.18;;;5.28;;
14092;SDS011;7123;49.468;10.992;2023-06-22T11:34:24;9.02;;;4.97;;
14092;SDS011;7123;49.468;10.992;2023-06-22T11:36:51;11.30;;;5.57;;
14092;SDS011;7123;49.468;10.992;2023-06-22T11:39:17;9.23;;;5.10;;
14092;SDS011;7123;49.468;10.992;2023-06-22T11:41:55;11.05;;;5.28;;
14092;SDS011;7123;49.468;10.992;2023-06-22T11:44:21;8.10;;;5.70;;
14092;SDS011;7123;49.468;10.992;2023-06-22T11:46:48;11.90;;;5.70;;
14092;SDS011;7123;49.468;10.992;2023-06-22T11:49:15;8.20;;;5.50;;
14092;SDS011;7123;49.468;10.992;2023-06-22T11:51:42;11.75;;;5.65;;
14092;SDS011;7123;49.468;10.992;2023-06-22T11:54:08;8.55;;;5.00;;
14092;SDS011;7123;49.468;10.992;2023-06-22T11:56:35;12.30;;;5.65;;
14092;SDS011;7123;49.468;10.992;2023-06-22T11:59:02;10.43;;;5.32;;
14092;SDS011;7123;49.468;10.992;2023-06-22T12:01:28;12.25;;;5.63;;
14092;SDS011;7123;49.468;10.992;2023-06-22T12:03:55;6.93;;;5.47;;
14092;SDS011;7123;49.468;10.992;2023-06-22T12:06:22;11.45;;;5.82;;
14092;SDS011;7123;49.468;10.992;2023-06-22T12:08:49;11.73;;;5.90;;
14092;SDS011;7123;49.468;10.992;2023-06-22T12:11:16;14.50;;;5.78;;
14092;SDS011;7123;49.468;10.992;2023-06-22T12:13:42;11.43;;;5.93;;
14092;SDS011;7123;49.468;10.992;2023-06-22T12:16:09;9.85;;;5.40;;
14092;SDS011;7123;49.468;10.992;2023-06-22T12:18:36;10.73;;;5.60;;
14092;SDS011;7123;49.468;10.992;2023-06-22T12:21:03;13.35;;;5.68;;
14092;SDS011;7123;49.468;10.992;2023-06-22T12:23:32;9.20;;;5.15;;
14092;SDS011;7123;49.468;10.992;2023-06-22T12:25:59;12.43;;;6.10;;
14092;SDS011;7123;49.468;10.992;2023-06-22T12:28:27;10.93;;;5.43;;
14092;SDS011;7123;49.468;10.992;2023-06-22T12:30:54;9.75;;;5.57;;
14092;SDS011;7123;49.468;10.992;2023-06-22T12:33:21;11.85;;;5.65;;
14092;SDS011;7123;49.468;10.992;2023-06-22T12:35:47;8.95;;;5.70;;
14092;SDS011;7123;49.468;10.992;2023-06-22T12:38:15;9.30;;;5.18;;
14092;SDS011;7123;49.468;10.992;2023-06-22T12:40:42;9.77;;;4.95;;
14092;SDS011;7123;49.468;10.992;2023-06-22T12:43:09;9.32;;;5.43;;
14092;SDS011;7123;49.468;10.992;2023-06-22T12:45:35;10.23;;;5.25;;
14092;SDS011;7123;49.468;10.992;2023-06-22T12:48:02;7.90;;;5.82;;
14092;SDS011;7123;49.468;10.992;2023-06-22T12:50:29;11.65;;;5.70;;
14092;SDS011;7123;49.468;10.992;2023-06-22T12:52:57;13.60;;;6.03;;
14092;SDS011;7123;49.468;10.992;2023-06-22T12:55:24;9.55;;;5.43;;
14092;SDS011;7123;49.468;10.992;2023-06-22T12:57:50;14.10;;;5.93;;
14092;SDS011;7123;49.468;10.992;2023-06-22T13:00:18;10.40;;;4.93;;
14092;SDS011;7123;49.468;10.992;2023-06-22T13:02:44;8.93;;;5.75;;
14092;SDS011;7123;49.468;10.992;2023-06-22T13:05:11;10.95;;;5.45;;
14092;SDS011;7123;49.468;10.992;2023-06-22T13:07:38;14.88;;;5.82;;
14092;SDS011;7123;49.468;10.992;2023-06-22T13:10:05;12.32;;;5.97;;
14092;SDS011;7123;49.468;10.992;2023-06-22T13:12:32;9.20;;;5.88;;
14092;SDS011;7123;49.468;10.992;2023-06-22T13:14:59;11.30;;;5.80;;
14092;SDS011;7123;49.468;10.992;2023-06-22T13:17:26;14.93;;;5.85;;
14092;SDS011;7123;49.468;10.992;2023-06-22T13:19:53;12.32;;;5.85;;
14092;SDS011;7123;49.468;10.992;2023-06-22T13:22:26;12.40;;;5.80;;
14092;SDS011;7123;49.468;10.992;2023-06-22T13:24:58;13.30;;;5.60;;
14092;SDS011;7123;49.468;10.992;2023-06-22T13:27:25;13.40;;;5.63;;
14092;SDS011;7123;49.468;10.992;2023-06-22T13:29:52;8.57;;;5.50;;
14092;SDS011;7123;49.468;10.992;2023-06-22T13:32:19;17.55;;;5.60;;
14092;SDS011;7123;49.468;10.992;2023-06-22T13:34:46;14.35;;;6.30;;
14092;SDS011;7123;49.468;10.992;2023-06-22T13:37:13;14.25;;;5.95;;
14092;SDS011;7123;49.468;10.992;2023-06-22T13:39:41;14.98;;;6.00;;
14092;SDS011;7123;49.468;10.992;2023-06-22T13:42:08;12.65;;;5.90;;
14092;SDS011;7123;49.468;10.992;2023-06-22T13:44:35;12.68;;;6.03;;
14092;SDS011;7123;49.468;10.992;2023-06-22T13:47:01;12.27;;;5.85;;
14092;SDS011;7123;49.468;10.992;2023-06-22T13:49:29;11.05;;;5.22;;
14092;SDS011;7123;49.468;10.992;2023-06-22T13:51:55;11.10;;;5.35;;
14092;SDS011;7123;49.468;10.992;2023-06-22T13:54:22;9.88;;;5.47;;
14092;SDS011;7123;49.468;10.992;2023-06-22T13:56:56;15.63;;;6.22;;
14092;SDS011;7123;49.468;10.992;2023-06-22T13:59:22;9.98;;;5.97;;
14092;SDS011;7123;49.468;10.992;2023-06-22T14:01:49;15.55;;;5.28;;
14092;SDS011;7123;49.468;10.992;2023-06-22T14:04:16;16.42;;;5.50;;
14092;SDS011;7123;49.468;10.992;2023-06-22T14:06:43;13.82;;;5.40;;
14092;SDS011;7123;49.468;10.992;2023-06-22T14:09:10;14.10;;;5.43;;
14092;SDS011;7123;49.468;10.992;2023-06-22T14:11:37;12.85;;;5.32;;
14092;SDS011;7123;49.468;10.992;2023-06-22T14:14:04;8.35;;;5.38;;
14092;SDS011;7123;49.468;10.992;2023-06-22T14:16:31;15.15;;;5.28;;
14092;SDS011;7123;49.468;10.992;2023-06-22T14:18:57;10.98;;;5.40;;
14092;SDS011;7123;49.468;10.992;2023-06-22T14:21:25;9.75;;;4.90;;
14092;SDS011;7123;49.468;10.992;2023-06-22T14:23:52;13.25;;;5.20;;
14092;SDS011;7123;49.468;10.992;2023-06-22T14:26:19;13.68;;;5.00;;
14092;SDS011;7123;49.468;10.992;2023-06-22T14:28:46;8.18;;;4.90;;
14092;SDS011;7123;49.468;10.992;2023-06-22T14:31:15;13.82;;;5.63;;
14092;SDS011;7123;49.468;10.992;2023-06-22T14:33:46;9.48;;;5.03;;
14092;SDS011;7123;49.468;10.992;2023-06-22T14:36:13;11.23;;;5.07;;
14092;SDS011;7123;49.468;10.992;2023-06-22T14:38:41;17.85;;;5.30;;
14092;SDS011;7123;49.468;10.992;2023-06-22T14:41:08;10.20;;;5.72;;
14092;SDS011;7123;49.468;10.992;2023-06-22T14:43:43;13.38;;;5.03;;
14092;SDS011;7123;49.468;10.992;2023-06-22T14:46:19;16.02;;;5.30;;
14092;SDS011;7123;49.468;10.992;2023-06-22T14:48:46;13.52;;;5.45;;
14092;SDS011;7123;49.468;10.992;2023-06-22T14:51:14;14.25;;;5.40;;